»·PEaware :: N2809K CAD4-KSFF

N2809K :: CAD4-KSFF

FLIGHT INFORMATION

Flight Status: Arrived
Operator: Privately registered:
United States
More flights under this callsign
Pilot: Wayne R. (17783)
Aircraft: CESSNA 152 AEROBAT
(C152)
More flights by this aircraft type
Origin: CAD4 Trail
Canada
Destination: KSFF Felts
United States
More flights between these airports :: More routes between these airports
Route:
File this flight plan on PilotEdge
Remarks:
Altitude:
(Current/Filed)
5,500ft
Speed:
(Current/Filed)
100kts
Departed: 03-Nov-19 07:28 PM
Arrived: 03-Nov-19 08:17 PM
Distance/Time
Traveled:
84nm/0:49
Distance/Time
To Go:
Arrived

Flight Plot

Page will automatically refresh every two minutes.

Flight plan parsing failed; only flown route is shown


Map Options




Map Legend


Flown Route
Filed Route
Departure Airport
Arrival Airport
Navaid (VOR, NDB)
Fix

Horizontal Profiles

Position Reports

Time Latitude Longitude Heading Altitude Ground
Speed
03-Nov-19 19:24 49.056253 -117.607999 348 1429ft 7kts
03-Nov-19 19:25 49.056864 -117.609392 351 1429ft 17kts
03-Nov-19 19:26 49.060437 -117.609526 180 1429ft 7kts
03-Nov-19 19:27 49.041298 -117.608609 194 1832ft 86kts
03-Nov-19 19:28 49.019021 -117.621003 203 2529ft 84kts
03-Nov-19 19:29 48.997929 -117.635447 205 3217ft 81kts
03-Nov-19 19:30 48.976104 -117.652469 218 3784ft 99kts
03-Nov-19 19:31 48.953576 -117.679439 224 4199ft 107kts
03-Nov-19 19:32 48.937815 -117.717085 247 4601ft 106kts
03-Nov-19 19:33 48.924143 -117.757157 246 5068ft 101kts
03-Nov-19 19:34 48.911418 -117.791871 246 5680ft 92kts
03-Nov-19 19:35 48.894115 -117.819756 196 6192ft 100kts
03-Nov-19 19:36 48.866869 -117.829449 196 6683ft 101kts
03-Nov-19 19:37 48.838828 -117.835969 178 7176ft 103kts
03-Nov-19 19:38 48.810370 -117.826760 159 7522ft 117kts
03-Nov-19 19:39 48.777176 -117.810332 162 7589ft 128kts
03-Nov-19 19:40 48.742678 -117.794891 162 7682ft 129kts
03-Nov-19 19:41 48.708107 -117.779517 163 7707ft 129kts
03-Nov-19 19:42 48.673696 -117.764141 163 7701ft 128kts
03-Nov-19 19:43 48.639474 -117.748828 162 7697ft 128kts
03-Nov-19 19:44 48.605193 -117.733477 162 7694ft 128kts
03-Nov-19 19:45 48.571782 -117.715483 157 7688ft 124kts
03-Nov-19 19:46 48.540145 -117.697480 157 7679ft 120kts
03-Nov-19 19:47 48.508826 -117.679649 158 7677ft 119kts
03-Nov-19 19:48 48.477997 -117.661755 157 7679ft 119kts
03-Nov-19 19:49 48.446977 -117.643925 157 7682ft 119kts
03-Nov-19 19:50 48.416071 -117.626233 157 7686ft 119kts
03-Nov-19 19:51 48.384956 -117.609106 159 7690ft 119kts
03-Nov-19 19:52 48.353537 -117.592727 159 7696ft 119kts
03-Nov-19 19:53 48.322307 -117.576185 159 7702ft 119kts
03-Nov-19 19:55 48.290220 -117.559419 159 7617ft 124kts
03-Nov-19 19:56 48.257876 -117.542545 159 7530ft 125kts
03-Nov-19 19:57 48.223861 -117.524843 159 7445ft 129kts
03-Nov-19 19:58 48.189682 -117.507058 159 7355ft 129kts
03-Nov-19 19:59 48.156251 -117.489696 159 7268ft 129kts
03-Nov-19 20:00 48.121494 -117.471641 159 7079ft 132kts
03-Nov-19 20:01 48.089172 -117.454849 159 6777ft 120kts
03-Nov-19 20:02 48.057787 -117.439250 162 6488ft 118kts
03-Nov-19 20:03 48.025393 -117.425207 162 6209ft 123kts
03-Nov-19 20:04 47.993342 -117.407243 157 5922ft 123kts
03-Nov-19 20:05 47.961689 -117.389396 157 5636ft 122kts
03-Nov-19 20:06 47.931419 -117.372464 157 5608ft 113kts
03-Nov-19 20:07 47.902654 -117.354268 154 5609ft 111kts
03-Nov-19 20:08 47.874161 -117.335750 155 5607ft 112kts
03-Nov-19 20:09 47.846708 -117.313121 150 5608ft 113kts
03-Nov-19 20:10 47.819703 -117.289560 148 5609ft 113kts
03-Nov-19 20:11 47.794313 -117.261541 145 5611ft 113kts
03-Nov-19 20:12 47.769749 -117.232918 145 5613ft 112kts
03-Nov-19 20:12 47.748503 -117.213072 180 5568ft 105kts
03-Nov-19 20:14 47.722411 -117.241085 248 4419ft 107kts
03-Nov-19 20:14 47.708259 -117.271774 234 2861ft 96kts
03-Nov-19 20:15 47.693859 -117.301275 234 2170ft 73kts
03-Nov-19 20:17 47.682337 -117.324672 232 1950ft 34kts
03-Nov-19 20:17 47.680107 -117.325069 145 1954ft 17kts

Navigation Log

Ident Type
Flight plan parsing failed, navigation log unavailable